Watertown, Tennessee
Current Conditions -  °F | °C
As of 10:53 PM on Tuesday 25 Nov 2014 (Local Time) from KBNA Reporting Station
Clear Clear  
Wind Chill: 33°   Ceiling: Unl
Heat Index: 38°   Visibility: 10mi
Dew Point: 27°   Wind: 6mph
Humidity: 65%   Direction: 320°NW
Pressure: 30.16"   Gusts: NA
Location:  36.1°N, 86.13°W
Report Text: KBNA 260453Z 32005KT 10SM CLR 03/M03 A3016 RMK AO2 SLP215 T00331028
Loading
Personal Weather Stations






























Interactive Weather Map New forecast layout! Learn more

10-Day Weather Forecast

Advertisements
Track Severe Weather on mobile